createdAt,value
2023-03-17T00:00:40.610Z,3.00
2023-03-17T00:03:11.804Z,3.00
2023-03-17T00:05:41.334Z,3.00
2023-03-17T00:08:19.255Z,3.10
2023-03-17T00:10:47.569Z,3.10
2023-03-17T00:13:16.073Z,3.10
2023-03-17T00:15:44.843Z,3.10
2023-03-17T00:18:17.343Z,3.20
2023-03-17T00:20:48.429Z,3.20
2023-03-17T00:23:20.459Z,3.30
2023-03-17T00:25:49.843Z,3.40
2023-03-17T00:28:21.017Z,3.50
2023-03-17T00:30:50.178Z,3.60
2023-03-17T00:33:19.565Z,3.70
2023-03-17T00:35:52.463Z,3.70
2023-03-17T00:38:22.347Z,3.80
2023-03-17T00:40:51.159Z,3.80
2023-03-17T00:43:19.790Z,3.90
2023-03-17T00:45:48.251Z,3.90
2023-03-17T00:48:18.671Z,3.90
2023-03-17T00:50:49.925Z,4.00
2023-03-17T00:53:22.424Z,4.00
2023-03-17T00:55:50.909Z,4.00
2023-03-17T00:58:25.338Z,3.90
2023-03-17T01:00:53.713Z,4.00
2023-03-17T01:03:23.326Z,4.00
2023-03-17T01:05:54.374Z,4.00
2023-03-17T01:08:25.624Z,3.90
2023-03-17T01:10:54.588Z,3.90
2023-03-17T01:13:23.358Z,3.90
2023-03-17T01:15:53.131Z,3.90
2023-03-17T01:18:23.935Z,3.90
2023-03-17T01:20:53.110Z,3.80
2023-03-17T01:23:23.068Z,3.80
2023-03-17T01:25:51.440Z,3.70
2023-03-17T01:28:21.060Z,3.60
2023-03-17T01:30:49.920Z,3.60
2023-03-17T01:33:19.309Z,3.50
2023-03-17T01:35:47.751Z,3.50
2023-03-17T01:38:17.476Z,3.40
2023-03-17T01:40:50.373Z,3.40
2023-03-17T01:43:23.150Z,3.40
2023-03-17T01:46:22.169Z,3.30
2023-03-17T01:49:09.429Z,3.20
2023-03-17T01:51:44.098Z,3.20
2023-03-17T01:54:18.700Z,3.20
2023-03-17T01:56:51.675Z,3.30
2023-03-17T01:59:23.643Z,3.20
2023-03-17T02:01:56.584Z,3.20
2023-03-17T02:04:26.785Z,3.20
2023-03-17T02:06:58.510Z,3.20
2023-03-17T02:09:29.126Z,3.20
2023-03-17T02:12:03.913Z,3.10
2023-03-17T02:14:32.612Z,3.10
2023-03-17T02:17:01.131Z,3.00
2023-03-17T02:19:34.241Z,2.90
2023-03-17T02:22:06.784Z,2.90
2023-03-17T02:24:39.978Z,2.80
2023-03-17T02:27:13.634Z,2.70
2023-03-17T02:29:42.553Z,2.60
2023-03-17T02:32:11.147Z,2.60
2023-03-17T02:34:40.020Z,2.50
2023-03-17T02:37:10.660Z,2.40
2023-03-17T02:39:40.171Z,2.40
2023-03-17T02:42:09.260Z,2.40
2023-03-17T02:44:37.793Z,2.40
2023-03-17T02:47:08.530Z,2.40
2023-03-17T02:49:38.710Z,2.40
2023-03-17T02:52:08.163Z,2.40
2023-03-17T02:54:38.101Z,2.40
2023-03-17T02:57:08.315Z,2.30
2023-03-17T02:59:37.163Z,2.30
2023-03-17T03:02:07.616Z,2.30
2023-03-17T03:04:36.600Z,2.20
2023-03-17T03:07:08.768Z,2.10
2023-03-17T03:09:38.564Z,2.10
2023-03-17T03:12:09.907Z,2.00
2023-03-17T03:14:40.108Z,1.90
2023-03-17T03:17:09.049Z,1.90
2023-03-17T03:19:37.553Z,1.70
2023-03-17T03:22:08.271Z,1.70
2023-03-17T03:24:38.572Z,1.70
2023-03-17T03:27:07.102Z,1.60
2023-03-17T03:29:35.601Z,1.60
2023-03-17T03:32:07.308Z,1.60
2023-03-17T03:34:35.753Z,1.60
2023-03-17T03:37:06.892Z,1.50
2023-03-17T03:39:35.366Z,1.50
2023-03-17T03:42:08.150Z,1.50
2023-03-17T03:44:36.727Z,1.40
2023-03-17T03:47:07.760Z,1.40
2023-03-17T03:49:36.222Z,1.40
2023-03-17T03:52:07.733Z,1.40
2023-03-17T03:54:36.244Z,1.40
2023-03-17T03:57:12.548Z,1.30
2023-03-17T03:59:40.925Z,1.30
2023-03-17T04:02:09.823Z,1.30
2023-03-17T04:04:39.546Z,1.30
2023-03-17T04:07:09.478Z,1.30
2023-03-17T04:09:38.922Z,1.30
2023-03-17T04:12:09.306Z,1.30
2023-03-17T04:14:38.942Z,1.30
2023-03-17T04:17:10.030Z,1.30
2023-03-17T04:19:38.627Z,1.40
2023-03-17T04:22:09.024Z,1.40
2023-03-17T04:24:37.480Z,1.40
2023-03-17T04:27:07.842Z,1.40
2023-03-17T04:29:36.335Z,1.40
2023-03-17T04:32:08.177Z,1.40
2023-03-17T04:34:36.438Z,1.30
2023-03-17T04:37:07.150Z,1.30
2023-03-17T04:39:35.731Z,1.30
2023-03-17T04:42:09.679Z,1.30
2023-03-17T04:44:38.756Z,1.40
2023-03-17T04:47:10.744Z,1.30
2023-03-17T04:49:39.223Z,1.40
2023-03-17T04:52:08.601Z,1.40
2023-03-17T04:54:37.076Z,1.40
2023-03-17T04:57:06.719Z,1.40
2023-03-17T04:59:35.311Z,1.40
2023-03-17T05:02:08.290Z,1.40
2023-03-17T05:04:36.658Z,1.30
2023-03-17T05:07:06.663Z,1.30
2023-03-17T05:09:34.994Z,1.20
2023-03-17T05:12:08.553Z,1.30
2023-03-17T05:14:37.171Z,1.30
2023-03-17T05:17:35.321Z,1.20
2023-03-17T05:20:08.318Z,1.20
2023-03-17T05:22:36.559Z,1.20
2023-03-17T05:25:10.083Z,1.10
2023-03-17T05:27:38.416Z,1.10
2023-03-17T05:30:09.262Z,1.10
2023-03-17T05:32:39.154Z,1.10
2023-03-17T05:35:08.371Z,1.10
2023-03-17T05:37:36.673Z,1.10
2023-03-17T05:40:10.519Z,1.10
2023-03-17T05:42:39.158Z,1.10
2023-03-17T05:45:08.206Z,1.00
2023-03-17T05:47:37.959Z,1.00
2023-03-17T05:50:07.965Z,0.90
2023-03-17T05:52:36.771Z,0.90
2023-03-17T05:55:07.717Z,0.80
2023-03-17T05:57:35.960Z,0.80
2023-03-17T06:00:07.757Z,0.80
2023-03-17T06:02:36.229Z,0.80
2023-03-17T06:05:09.300Z,0.80
2023-03-17T06:07:50.893Z,0.80
2023-03-17T06:10:20.511Z,0.80
2023-03-17T06:12:50.048Z,0.90
2023-03-17T06:15:19.135Z,0.80
2023-03-17T06:17:47.469Z,0.80
2023-03-17T06:20:17.613Z,0.80
2023-03-17T06:23:02.257Z,0.90
2023-03-17T06:25:32.396Z,0.90
2023-03-17T06:28:05.827Z,0.90
2023-03-17T06:30:35.135Z,1.00
2023-03-17T06:33:08.358Z,1.00
2023-03-17T06:35:38.349Z,1.10
2023-03-17T06:38:06.599Z,1.10
2023-03-17T06:40:34.996Z,1.20
2023-03-17T06:43:04.282Z,1.30
2023-03-17T06:45:33.795Z,1.40
2023-03-17T06:48:06.947Z,1.50
2023-03-17T06:50:35.270Z,1.60
2023-03-17T06:53:05.336Z,1.80
2023-03-17T06:55:34.072Z,2.10
2023-03-17T06:58:05.696Z,2.20
2023-03-17T07:00:34.081Z,2.30
2023-03-17T07:03:05.668Z,2.30
2023-03-17T07:05:34.165Z,2.50
2023-03-17T07:08:05.120Z,2.80
2023-03-17T07:10:33.530Z,3.00
2023-03-17T07:13:03.888Z,3.10
2023-03-17T07:15:34.910Z,3.40
2023-03-17T07:18:04.395Z,3.70
2023-03-17T07:20:33.277Z,4.10
2023-03-17T07:23:04.841Z,4.40
2023-03-17T07:25:36.735Z,4.70
2023-03-17T07:28:05.110Z,5.00
2023-03-17T07:30:33.696Z,5.20
2023-03-17T07:33:04.881Z,5.40
2023-03-17T07:35:34.747Z,5.50
2023-03-17T07:38:06.646Z,5.60
2023-03-17T07:40:36.307Z,5.80
2023-03-17T07:43:04.615Z,5.80
2023-03-17T07:45:35.225Z,5.90
2023-03-17T07:48:05.040Z,6.00
2023-03-17T07:50:33.407Z,6.10
2023-03-17T07:53:03.115Z,6.10
2023-03-17T07:55:32.546Z,6.10
2023-03-17T07:58:07.713Z,6.20
2023-03-17T08:00:36.412Z,6.30
2023-03-17T08:03:10.792Z,6.40
2023-03-17T08:05:39.546Z,6.50
2023-03-17T08:08:08.013Z,6.60
2023-03-17T08:10:36.468Z,6.70
2023-03-17T08:13:06.200Z,6.80
2023-03-17T08:15:34.441Z,6.90
2023-03-17T08:18:06.898Z,7.00
2023-03-17T08:20:36.263Z,7.10
2023-03-17T08:23:06.626Z,7.30
2023-03-17T08:25:35.325Z,7.50
2023-03-17T08:28:07.933Z,7.70
2023-03-17T08:30:37.823Z,7.80
2023-03-17T08:33:07.543Z,7.80
2023-03-17T08:35:37.432Z,7.90
2023-03-17T08:38:07.877Z,7.90
2023-03-17T08:40:36.488Z,8.00
2023-03-17T08:43:08.739Z,8.10
2023-03-17T08:45:37.060Z,8.30
2023-03-17T08:48:06.656Z,8.40
2023-03-17T08:50:35.438Z,8.40
2023-03-17T08:53:06.537Z,8.40
2023-03-17T08:55:35.071Z,8.60
2023-03-17T08:58:09.306Z,8.80
2023-03-17T09:00:37.973Z,8.90
2023-03-17T09:03:08.566Z,9.10
2023-03-17T09:05:38.588Z,9.30
2023-03-17T09:08:07.510Z,9.50
2023-03-17T09:10:36.218Z,9.70
2023-03-17T09:13:08.966Z,9.80
2023-03-17T09:15:37.784Z,9.90
2023-03-17T09:18:06.785Z,9.90
2023-03-17T09:20:35.111Z,9.70
2023-03-17T09:23:08.293Z,9.60
2023-03-17T09:25:37.493Z,9.50
2023-03-17T09:28:07.745Z,9.40
2023-03-17T09:30:36.757Z,9.30
2023-03-17T09:33:06.580Z,9.20
2023-03-17T09:35:35.121Z,9.20
2023-03-17T09:38:03.422Z,9.10
2023-03-17T09:40:35.180Z,8.90
2023-03-17T09:43:18.474Z,9.00
2023-03-17T09:45:47.091Z,9.00
2023-03-17T09:48:32.462Z,9.00
2023-03-17T09:51:06.635Z,9.00
2023-03-17T09:53:41.386Z,9.20
2023-03-17T09:56:14.264Z,9.30
2023-03-17T09:58:51.401Z,9.40
2023-03-17T10:01:20.129Z,9.40
2023-03-17T10:03:50.379Z,9.40
2023-03-17T10:06:32.187Z,9.50
2023-03-17T10:09:08.885Z,9.60
2023-03-17T10:11:42.382Z,9.70
2023-03-17T10:14:28.564Z,9.80
2023-03-17T10:17:06.537Z,9.90
2023-03-17T10:19:41.858Z,10.10
2023-03-17T10:22:19.395Z,10.20
2023-03-17T10:24:51.538Z,10.50
2023-03-17T10:27:20.353Z,10.60
2023-03-17T10:29:50.807Z,10.70
2023-03-17T10:32:19.061Z,10.80
2023-03-17T10:34:49.243Z,11.00
2023-03-17T10:37:20.286Z,11.00
2023-03-17T10:39:51.773Z,11.00
2023-03-17T10:42:24.526Z,11.10
2023-03-17T10:44:58.336Z,11.10
2023-03-17T10:47:32.269Z,11.10
2023-03-17T10:50:06.898Z,11.20
2023-03-17T10:52:42.161Z,11.40
2023-03-17T10:55:16.190Z,11.50
2023-03-17T10:57:53.240Z,11.70
2023-03-17T11:00:26.548Z,11.80
2023-03-17T11:02:58.399Z,11.90
2023-03-17T11:05:29.008Z,11.90
2023-03-17T11:07:59.924Z,11.90
2023-03-17T11:10:37.755Z,11.80
2023-03-17T11:13:06.672Z,11.80
2023-03-17T11:15:38.881Z,11.80
2023-03-17T11:18:15.624Z,11.80
2023-03-17T11:20:58.583Z,11.90
2023-03-17T11:23:45.143Z,12.00
2023-03-17T11:26:25.800Z,12.10
2023-03-17T11:29:06.621Z,12.20
2023-03-17T11:31:42.892Z,12.40
2023-03-17T11:34:19.854Z,12.60
2023-03-17T11:36:58.258Z,12.70
2023-03-17T11:39:35.112Z,12.80
2023-03-17T11:42:14.852Z,12.90
2023-03-17T11:45:00.495Z,12.90
2023-03-17T11:47:59.919Z,13.00
2023-03-17T11:51:06.995Z,13.00
2023-03-17T11:53:49.579Z,13.00
2023-03-17T11:56:21.519Z,13.00
2023-03-17T11:58:56.354Z,12.90
2023-03-17T12:01:29.022Z,12.80
2023-03-17T12:04:12.235Z,12.80
2023-03-17T12:06:45.857Z,12.80
2023-03-17T12:09:26.591Z,12.80
2023-03-17T12:11:56.841Z,12.90
2023-03-17T12:14:30.722Z,13.00
2023-03-17T12:17:06.785Z,13.00
2023-03-17T12:19:42.364Z,13.20
2023-03-17T12:22:21.260Z,13.30
2023-03-17T12:24:55.398Z,13.40
2023-03-17T12:27:27.808Z,13.50
2023-03-17T12:30:00.167Z,13.80
2023-03-17T12:32:39.223Z,14.00
2023-03-17T12:35:27.742Z,14.20
2023-03-17T12:37:59.756Z,14.30
2023-03-17T12:40:33.630Z,14.30
2023-03-17T12:43:23.083Z,14.30
2023-03-17T12:46:12.127Z,14.10
2023-03-17T12:48:58.401Z,14.10
2023-03-17T12:51:54.888Z,14.00
2023-03-17T12:54:27.495Z,14.00
2023-03-17T12:57:07.570Z,14.00
2023-03-17T12:59:37.541Z,14.10
2023-03-17T13:02:17.584Z,14.10
2023-03-17T13:04:57.775Z,14.10
2023-03-17T13:07:32.574Z,14.10
2023-03-17T13:10:21.090Z,14.10
2023-03-17T13:13:11.104Z,14.20
2023-03-17T13:15:55.829Z,14.10
2023-03-17T13:18:51.288Z,14.10
2023-03-17T13:21:25.176Z,14.20
2023-03-17T13:24:01.250Z,14.20
2023-03-17T13:26:54.297Z,14.20
2023-03-17T13:29:39.672Z,14.30
2023-03-17T13:32:38.336Z,14.30
2023-03-17T13:35:23.183Z,14.40
2023-03-17T13:38:13.932Z,14.50
2023-03-17T13:40:54.254Z,14.50
2023-03-17T13:43:43.429Z,14.50
2023-03-17T13:46:34.816Z,14.50
2023-03-17T13:49:16.389Z,14.60
2023-03-17T13:51:59.464Z,14.60
2023-03-17T13:54:36.444Z,14.60
2023-03-17T13:57:36.454Z,14.80
2023-03-17T14:00:22.587Z,14.80
2023-03-17T14:03:00.032Z,14.90
2023-03-17T14:05:35.807Z,14.90
2023-03-17T14:08:07.292Z,14.90
2023-03-17T14:10:36.450Z,15.00
2023-03-17T14:13:19.494Z,15.00
2023-03-17T14:15:56.405Z,15.00
2023-03-17T14:18:31.802Z,15.00
2023-03-17T14:21:30.440Z,15.10
2023-03-17T14:24:01.892Z,15.20
2023-03-17T14:26:36.660Z,15.40
2023-03-17T14:29:06.187Z,15.50
2023-03-17T14:31:34.696Z,15.70
2023-03-17T14:34:14.488Z,15.80
2023-03-17T14:36:43.102Z,16.10
2023-03-17T14:39:22.996Z,16.30
2023-03-17T14:42:00.326Z,16.50
2023-03-17T14:45:07.639Z,16.80
2023-03-17T14:47:40.438Z,16.90
2023-03-17T14:50:17.119Z,16.80
2023-03-17T14:52:46.401Z,16.60
2023-03-17T14:55:16.603Z,16.30
2023-03-17T14:57:51.123Z,16.10
2023-03-17T15:00:44.709Z,15.90
2023-03-17T15:03:20.308Z,15.70
2023-03-17T15:05:50.576Z,15.60
2023-03-17T15:08:40.897Z,15.50
2023-03-17T15:11:16.083Z,15.40
2023-03-17T15:13:44.624Z,15.40
2023-03-17T15:16:23.202Z,15.30
2023-03-17T15:19:05.094Z,15.20
2023-03-17T15:21:41.226Z,15.20
2023-03-17T15:24:26.602Z,15.10
2023-03-17T15:27:06.736Z,15.10
2023-03-17T15:29:35.480Z,15.00
2023-03-17T15:32:16.205Z,15.00
2023-03-17T15:34:44.545Z,14.90
2023-03-17T15:37:18.092Z,14.90
2023-03-17T15:39:47.068Z,14.90
2023-03-17T15:42:16.222Z,14.90
2023-03-17T15:44:45.074Z,14.80
2023-03-17T15:47:17.379Z,14.80
2023-03-17T15:49:46.765Z,14.80
2023-03-17T15:52:21.486Z,14.70
2023-03-17T15:54:50.378Z,14.70
2023-03-17T15:57:18.890Z,14.60
2023-03-17T15:59:47.211Z,14.60
2023-03-17T16:02:32.000Z,14.60
2023-03-17T16:05:03.917Z,14.50
2023-03-17T16:07:32.230Z,14.40
2023-03-17T16:10:00.765Z,14.40
2023-03-17T16:13:04.745Z,14.30
2023-03-17T16:15:39.000Z,14.30
2023-03-17T16:18:13.572Z,14.20
2023-03-17T16:20:44.518Z,14.10
2023-03-17T16:23:17.350Z,13.90
2023-03-17T16:25:46.609Z,13.90
2023-03-17T16:28:16.945Z,13.80
2023-03-17T16:30:47.371Z,13.70
2023-03-17T16:33:20.555Z,13.50
2023-03-17T16:35:49.619Z,13.40
2023-03-17T16:38:19.523Z,13.40
2023-03-17T16:40:49.823Z,13.20
2023-03-17T16:43:25.468Z,13.10
2023-03-17T16:45:55.813Z,13.00
2023-03-17T16:48:26.745Z,13.00
2023-03-17T16:50:55.800Z,12.80
2023-03-17T16:53:26.111Z,12.80
2023-03-17T16:55:55.765Z,12.70
2023-03-17T16:58:26.598Z,12.60
2023-03-17T17:00:59.550Z,12.60
2023-03-17T17:03:31.264Z,12.60
2023-03-17T17:05:59.769Z,12.70
2023-03-17T17:08:28.859Z,12.70
2023-03-17T17:10:57.680Z,12.80
2023-03-17T17:13:26.098Z,12.80
2023-03-17T17:15:55.625Z,12.80
2023-03-17T17:18:25.533Z,12.80
2023-03-17T17:20:56.688Z,12.70
2023-03-17T17:23:27.341Z,12.70
2023-03-17T17:25:56.636Z,12.70
2023-03-17T17:28:26.116Z,12.70
2023-03-17T17:30:54.803Z,12.70
2023-03-17T17:33:23.171Z,12.60
2023-03-17T17:35:52.704Z,12.50
2023-03-17T17:38:26.251Z,12.50
2023-03-17T17:40:55.495Z,12.40
2023-03-17T17:43:25.046Z,12.40
2023-03-17T17:45:53.930Z,12.40
2023-03-17T17:48:24.647Z,12.40
2023-03-17T17:50:54.326Z,12.30
2023-03-17T17:53:23.980Z,12.30
2023-03-17T17:55:53.058Z,12.30
2023-03-17T17:58:24.568Z,12.30
2023-03-17T18:00:55.067Z,12.20
2023-03-17T18:03:25.187Z,12.10
2023-03-17T18:05:53.877Z,12.10
2023-03-17T18:08:24.190Z,12.10
2023-03-17T18:10:52.668Z,12.00
2023-03-17T18:13:21.289Z,11.90
2023-03-17T18:15:49.500Z,11.70
2023-03-17T18:18:18.674Z,11.60
2023-03-17T18:20:47.509Z,11.60
2023-03-17T18:23:17.480Z,11.40
2023-03-17T18:25:47.328Z,11.30
2023-03-17T18:28:16.179Z,11.20
2023-03-17T18:30:45.604Z,11.00
2023-03-17T18:33:18.434Z,11.00
2023-03-17T18:35:49.678Z,10.90
2023-03-17T18:38:18.173Z,10.70
2023-03-17T18:40:47.819Z,10.60
2023-03-17T18:43:16.128Z,10.60
2023-03-17T18:45:44.530Z,10.50
2023-03-17T18:48:12.866Z,10.40
2023-03-17T18:50:41.247Z,10.30
2023-03-17T18:53:10.305Z,10.20
2023-03-17T18:55:38.638Z,10.10
2023-03-17T18:58:08.251Z,10.10
2023-03-17T19:00:36.539Z,10.00
2023-03-17T19:03:09.381Z,9.90
2023-03-17T19:05:39.398Z,9.80
2023-03-17T19:08:08.004Z,9.80
2023-03-17T19:10:36.339Z,9.70
2023-03-17T19:13:10.201Z,9.70
2023-03-17T19:15:39.252Z,9.60
2023-03-17T19:18:10.279Z,9.50
2023-03-17T19:20:38.563Z,9.40
2023-03-17T19:23:08.580Z,9.40
2023-03-17T19:25:37.300Z,9.30
2023-03-17T19:28:06.292Z,9.30
2023-03-17T19:30:36.038Z,9.30
2023-03-17T19:33:07.991Z,9.30
2023-03-17T19:35:36.301Z,9.20
2023-03-17T19:38:32.972Z,9.20
2023-03-17T19:43:57.329Z,9.10
2023-03-17T19:46:27.151Z,9.00
2023-03-17T19:48:56.553Z,9.00
2023-03-17T19:51:24.801Z,9.00
2023-03-17T19:53:53.301Z,9.00
2023-03-17T19:56:22.948Z,8.90
2023-03-17T19:58:52.212Z,8.90
2023-03-17T20:01:20.776Z,8.90
2023-03-17T20:03:50.469Z,8.90
2023-03-17T20:06:19.062Z,8.90
2023-03-17T20:08:48.029Z,8.90
2023-03-17T20:11:16.920Z,8.80
2023-03-17T20:13:45.307Z,8.80
2023-03-17T20:16:13.631Z,8.80
2023-03-17T20:18:42.112Z,8.70
2023-03-17T20:21:14.517Z,8.70
2023-03-17T20:23:42.962Z,8.70
2023-03-17T20:26:11.321Z,8.70
2023-03-17T20:28:39.700Z,8.70
2023-03-17T20:31:08.052Z,8.80
2023-03-17T20:33:36.606Z,8.90
2023-03-17T20:36:08.586Z,8.90
2023-03-17T20:38:38.965Z,8.90
2023-03-17T20:41:09.245Z,8.80
2023-03-17T20:43:38.440Z,8.80
2023-03-17T20:46:09.284Z,8.70
2023-03-17T20:48:38.453Z,8.70
2023-03-17T20:51:10.078Z,8.60
2023-03-17T20:53:39.822Z,8.50
2023-03-17T20:56:08.450Z,8.50
2023-03-17T20:58:37.494Z,8.40
2023-03-17T21:01:09.755Z,8.30
2023-03-17T21:03:38.193Z,8.30
2023-03-17T21:06:06.643Z,8.20
2023-03-17T21:08:35.634Z,8.20
2023-03-17T21:11:09.095Z,8.10
2023-03-17T21:13:37.538Z,8.10
2023-03-17T21:16:12.586Z,8.10
2023-03-17T21:18:40.941Z,8.10
2023-03-17T21:21:09.178Z,8.10
2023-03-17T21:23:37.949Z,8.10
2023-03-17T21:26:09.078Z,8.00
2023-03-17T21:28:41.213Z,8.00
2023-03-17T21:31:10.439Z,7.90
2023-03-17T21:33:39.178Z,7.90
2023-03-17T21:36:08.631Z,7.80
2023-03-17T21:38:37.539Z,7.70
2023-03-17T21:41:23.680Z,7.70
2023-03-17T21:43:51.964Z,7.70
2023-03-17T21:46:20.312Z,7.70
2023-03-17T21:48:48.564Z,7.70
2023-03-17T21:51:16.849Z,7.70
2023-03-17T21:53:46.713Z,7.70
2023-03-17T21:56:15.520Z,7.70
2023-03-17T21:58:45.626Z,7.70
2023-03-17T22:01:14.313Z,7.70
2023-03-17T22:03:43.153Z,7.70
2023-03-17T22:06:11.855Z,7.70
2023-03-17T22:08:40.428Z,7.70
2023-03-17T22:11:10.538Z,7.80
2023-03-17T22:13:38.965Z,7.80
2023-03-17T22:16:15.035Z,7.80
2023-03-17T22:18:43.806Z,7.80
2023-03-17T22:21:12.393Z,7.70
2023-03-17T22:23:41.977Z,7.70
2023-03-17T22:26:13.316Z,7.70
2023-03-17T22:28:43.609Z,7.70
2023-03-17T22:31:14.197Z,7.80
2023-03-17T22:33:42.776Z,7.80
2023-03-17T22:36:11.984Z,7.80
2023-03-17T22:38:40.301Z,7.90
2023-03-17T22:41:10.927Z,7.90
2023-03-17T22:43:40.066Z,7.90
2023-03-17T22:46:09.108Z,7.90
2023-03-17T22:48:40.096Z,7.90
2023-03-17T22:51:11.150Z,7.90
2023-03-17T22:53:40.611Z,7.90
2023-03-17T22:56:09.986Z,7.90
2023-03-17T22:58:38.899Z,8.00
2023-03-17T23:01:08.280Z,8.00
2023-03-17T23:03:38.566Z,8.00
2023-03-17T23:06:08.460Z,8.00
2023-03-17T23:08:38.793Z,8.00
2023-03-17T23:11:10.568Z,8.10
2023-03-17T23:13:41.418Z,8.10
2023-03-17T23:16:10.521Z,8.10
2023-03-17T23:18:40.852Z,8.10
2023-03-17T23:21:10.212Z,8.10
2023-03-17T23:23:39.421Z,8.10
2023-03-17T23:26:09.275Z,8.10
2023-03-17T23:28:37.661Z,8.00
2023-03-17T23:31:06.518Z,8.00
2023-03-17T23:33:34.851Z,8.00
2023-03-17T23:36:34.978Z,8.00
2023-03-17T23:39:11.224Z,8.00
2023-03-17T23:41:39.634Z,8.10
2023-03-17T23:44:08.191Z,8.10
2023-03-17T23:46:36.612Z,8.10
2023-03-17T23:49:08.641Z,8.10
2023-03-17T23:51:39.077Z,8.10
2023-03-17T23:54:08.268Z,8.10
2023-03-17T23:56:37.009Z,8.10
2023-03-17T23:59:11.645Z,8.10
